sensor_id;sensor_type;location;lat;lon;timestamp;P1;durP1;ratioP1;P2;durP2;ratioP2
46757;SDS011;32509;47.750;-3.396;2024-03-23T00:55:47;34.05;;;30.85;;
46757;SDS011;32509;47.750;-3.396;2024-03-23T00:58:13;33.33;;;30.55;;
46757;SDS011;32509;47.750;-3.396;2024-03-23T01:00:38;34.20;;;31.05;;
46757;SDS011;32509;47.750;-3.396;2024-03-23T01:03:04;33.22;;;30.50;;
46757;SDS011;32509;47.750;-3.396;2024-03-23T01:05:30;31.48;;;29.10;;
46757;SDS011;32509;47.750;-3.396;2024-03-23T01:07:56;35.08;;;32.03;;
46757;SDS011;32509;47.750;-3.396;2024-03-23T01:10:22;32.78;;;29.75;;
46757;SDS011;32509;47.750;-3.396;2024-03-23T01:12:48;32.83;;;29.85;;
46757;SDS011;32509;47.750;-3.396;2024-03-23T01:15:13;30.95;;;28.52;;
46757;SDS011;32509;47.750;-3.396;2024-03-23T01:17:39;31.65;;;29.05;;
46757;SDS011;32509;47.750;-3.396;2024-03-23T01:20:07;36.90;;;33.45;;
46757;SDS011;32509;47.750;-3.396;2024-03-23T01:22:33;31.45;;;28.83;;
46757;SDS011;32509;47.750;-3.396;2024-03-23T01:24:59;34.58;;;31.85;;
46757;SDS011;32509;47.750;-3.396;2024-03-23T01:27:25;33.72;;;31.33;;
46757;SDS011;32509;47.750;-3.396;2024-03-23T01:29:51;36.13;;;33.22;;
46757;SDS011;32509;47.750;-3.396;2024-03-23T01:32:17;36.78;;;33.42;;
46757;SDS011;32509;47.750;-3.396;2024-03-23T01:34:44;39.10;;;35.90;;
46757;SDS011;32509;47.750;-3.396;2024-03-23T01:37:09;36.45;;;33.95;;
46757;SDS011;32509;47.750;-3.396;2024-03-23T01:39:35;35.70;;;32.78;;
46757;SDS011;32509;47.750;-3.396;2024-03-23T01:42:01;33.97;;;31.23;;
46757;SDS011;32509;47.750;-3.396;2024-03-23T01:44:27;33.28;;;30.60;;
46757;SDS011;32509;47.750;-3.396;2024-03-23T01:46:53;34.70;;;31.65;;
46757;SDS011;32509;47.750;-3.396;2024-03-23T01:49:19;38.72;;;35.63;;
46757;SDS011;32509;47.750;-3.396;2024-03-23T01:51:45;37.10;;;34.22;;
46757;SDS011;32509;47.750;-3.396;2024-03-23T01:54:11;32.70;;;30.48;;
46757;SDS011;32509;47.750;-3.396;2024-03-23T01:56:37;33.05;;;30.55;;
46757;SDS011;32509;47.750;-3.396;2024-03-23T01:59:03;32.80;;;30.02;;
46757;SDS011;32509;47.750;-3.396;2024-03-23T02:01:30;31.88;;;29.25;;
46757;SDS011;32509;47.750;-3.396;2024-03-23T02:03:56;30.77;;;28.20;;
46757;SDS011;32509;47.750;-3.396;2024-03-23T02:06:22;33.10;;;30.38;;
46757;SDS011;32509;47.750;-3.396;2024-03-23T02:08:49;32.20;;;29.67;;
46757;SDS011;32509;47.750;-3.396;2024-03-23T02:11:15;31.42;;;28.52;;
46757;SDS011;32509;47.750;-3.396;2024-03-23T02:13:41;33.13;;;30.55;;
46757;SDS011;32509;47.750;-3.396;2024-03-23T02:16:07;30.25;;;28.00;;
46757;SDS011;32509;47.750;-3.396;2024-03-23T02:18:33;30.90;;;28.42;;
46757;SDS011;32509;47.750;-3.396;2024-03-23T02:20:59;28.92;;;26.35;;
46757;SDS011;32509;47.750;-3.396;2024-03-23T02:23:24;33.38;;;30.35;;
46757;SDS011;32509;47.750;-3.396;2024-03-23T02:25:50;30.67;;;28.17;;
46757;SDS011;32509;47.750;-3.396;2024-03-23T02:28:18;31.25;;;28.58;;
46757;SDS011;32509;47.750;-3.396;2024-03-23T02:30:44;31.85;;;29.15;;
46757;SDS011;32509;47.750;-3.396;2024-03-23T02:33:10;31.38;;;28.83;;
46757;SDS011;32509;47.750;-3.396;2024-03-23T02:35:36;33.38;;;30.83;;
46757;SDS011;32509;47.750;-3.396;2024-03-23T02:38:01;31.98;;;29.63;;
46757;SDS011;32509;47.750;-3.396;2024-03-23T02:40:27;30.42;;;27.95;;
46757;SDS011;32509;47.750;-3.396;2024-03-23T02:42:54;30.02;;;27.73;;
46757;SDS011;32509;47.750;-3.396;2024-03-23T02:45:20;32.72;;;30.00;;
46757;SDS011;32509;47.750;-3.396;2024-03-23T02:47:46;29.90;;;27.48;;
46757;SDS011;32509;47.750;-3.396;2024-03-23T02:50:12;33.03;;;30.40;;
46757;SDS011;32509;47.750;-3.396;2024-03-23T02:52:38;30.90;;;28.88;;
46757;SDS011;32509;47.750;-3.396;2024-03-23T02:55:04;30.55;;;28.23;;
46757;SDS011;32509;47.750;-3.396;2024-03-23T02:57:30;33.67;;;30.50;;
46757;SDS011;32509;47.750;-3.396;2024-03-23T02:59:56;30.65;;;28.38;;
46757;SDS011;32509;47.750;-3.396;2024-03-23T03:02:21;33.67;;;31.27;;
46757;SDS011;32509;47.750;-3.396;2024-03-23T03:04:47;34.40;;;30.95;;
46757;SDS011;32509;47.750;-3.396;2024-03-23T03:07:13;32.65;;;29.80;;
46757;SDS011;32509;47.750;-3.396;2024-03-23T03:09:39;31.27;;;28.50;;
46757;SDS011;32509;47.750;-3.396;2024-03-23T03:12:05;32.42;;;30.00;;
46757;SDS011;32509;47.750;-3.396;2024-03-23T03:14:31;32.20;;;29.35;;
46757;SDS011;32509;47.750;-3.396;2024-03-23T03:16:57;32.92;;;29.92;;
46757;SDS011;32509;47.750;-3.396;2024-03-23T03:19:23;32.38;;;29.85;;
46757;SDS011;32509;47.750;-3.396;2024-03-23T03:21:49;36.13;;;33.25;;
46757;SDS011;32509;47.750;-3.396;2024-03-23T03:24:15;33.88;;;31.60;;
46757;SDS011;32509;47.750;-3.396;2024-03-23T03:26:41;31.50;;;29.13;;
46757;SDS011;32509;47.750;-3.396;2024-03-23T03:29:08;34.50;;;31.55;;
46757;SDS011;32509;47.750;-3.396;2024-03-23T03:31:33;33.55;;;30.85;;
46757;SDS011;32509;47.750;-3.396;2024-03-23T03:33:59;33.42;;;30.95;;
46757;SDS011;32509;47.750;-3.396;2024-03-23T03:36:25;34.83;;;32.40;;
46757;SDS011;32509;47.750;-3.396;2024-03-23T03:38:51;32.22;;;29.75;;
46757;SDS011;32509;47.750;-3.396;2024-03-23T03:41:18;34.13;;;31.40;;
46757;SDS011;32509;47.750;-3.396;2024-03-23T03:43:44;32.10;;;29.38;;
46757;SDS011;32509;47.750;-3.396;2024-03-23T03:46:10;31.98;;;29.45;;
46757;SDS011;32509;47.750;-3.396;2024-03-23T03:48:36;32.40;;;29.88;;
46757;SDS011;32509;47.750;-3.396;2024-03-23T03:51:02;32.22;;;30.05;;
46757;SDS011;32509;47.750;-3.396;2024-03-23T03:53:28;31.40;;;29.13;;
46757;SDS011;32509;47.750;-3.396;2024-03-23T03:55:54;29.40;;;27.27;;
46757;SDS011;32509;47.750;-3.396;2024-03-23T03:58:20;30.63;;;28.17;;
46757;SDS011;32509;47.750;-3.396;2024-03-23T04:00:45;31.85;;;29.70;;
46757;SDS011;32509;47.750;-3.396;2024-03-23T04:03:11;31.88;;;29.85;;
46757;SDS011;32509;47.750;-3.396;2024-03-23T04:05:37;30.23;;;28.10;;
46757;SDS011;32509;47.750;-3.396;2024-03-23T04:08:03;32.28;;;29.92;;
46757;SDS011;32509;47.750;-3.396;2024-03-23T04:10:29;35.00;;;32.17;;
46757;SDS011;32509;47.750;-3.396;2024-03-23T04:12:55;32.78;;;30.30;;
46757;SDS011;32509;47.750;-3.396;2024-03-23T04:15:21;33.25;;;30.80;;
46757;SDS011;32509;47.750;-3.396;2024-03-23T04:17:47;35.03;;;31.63;;
46757;SDS011;32509;47.750;-3.396;2024-03-23T04:20:12;32.95;;;30.73;;
46757;SDS011;32509;47.750;-3.396;2024-03-23T04:22:41;32.05;;;29.88;;
46757;SDS011;32509;47.750;-3.396;2024-03-23T04:25:08;32.75;;;30.02;;
46757;SDS011;32509;47.750;-3.396;2024-03-23T04:27:36;32.67;;;30.45;;
46757;SDS011;32509;47.750;-3.396;2024-03-23T04:30:02;29.48;;;27.42;;
46757;SDS011;32509;47.750;-3.396;2024-03-23T04:32:35;32.92;;;30.17;;
46757;SDS011;32509;47.750;-3.396;2024-03-23T04:35:01;31.98;;;29.25;;
46757;SDS011;32509;47.750;-3.396;2024-03-23T04:37:28;31.40;;;29.17;;
46757;SDS011;32509;47.750;-3.396;2024-03-23T04:39:54;33.15;;;30.80;;
46757;SDS011;32509;47.750;-3.396;2024-03-23T04:42:19;33.70;;;31.15;;
46757;SDS011;32509;47.750;-3.396;2024-03-23T04:44:45;32.20;;;29.95;;
46757;SDS011;32509;47.750;-3.396;2024-03-23T04:47:11;32.58;;;30.33;;
46757;SDS011;32509;47.750;-3.396;2024-03-23T04:49:36;32.85;;;30.33;;
46757;SDS011;32509;47.750;-3.396;2024-03-23T04:52:05;33.05;;;30.05;;
46757;SDS011;32509;47.750;-3.396;2024-03-23T04:54:31;34.85;;;31.90;;
46757;SDS011;32509;47.750;-3.396;2024-03-23T04:56:57;33.22;;;30.88;;
46757;SDS011;32509;47.750;-3.396;2024-03-23T04:59:23;32.08;;;29.75;;
46757;SDS011;32509;47.750;-3.396;2024-03-23T05:01:49;32.53;;;29.65;;
46757;SDS011;32509;47.750;-3.396;2024-03-23T05:04:15;30.90;;;28.58;;
46757;SDS011;32509;47.750;-3.396;2024-03-23T05:06:40;30.92;;;28.27;;
46757;SDS011;32509;47.750;-3.396;2024-03-23T05:09:06;30.98;;;28.42;;
46757;SDS011;32509;47.750;-3.396;2024-03-23T05:11:35;32.88;;;30.40;;
46757;SDS011;32509;47.750;-3.396;2024-03-23T05:14:01;33.65;;;31.08;;
46757;SDS011;32509;47.750;-3.396;2024-03-23T05:16:28;33.28;;;30.85;;
46757;SDS011;32509;47.750;-3.396;2024-03-23T05:18:53;31.45;;;28.88;;
46757;SDS011;32509;47.750;-3.396;2024-03-23T05:21:19;32.35;;;29.52;;
46757;SDS011;32509;47.750;-3.396;2024-03-23T05:23:45;33.67;;;31.20;;
46757;SDS011;32509;47.750;-3.396;2024-03-23T05:26:11;36.90;;;33.75;;
46757;SDS011;32509;47.750;-3.396;2024-03-23T05:28:36;30.95;;;28.80;;
46757;SDS011;32509;47.750;-3.396;2024-03-23T05:31:02;32.05;;;29.65;;
46757;SDS011;32509;47.750;-3.396;2024-03-23T05:33:28;36.95;;;33.92;;
46757;SDS011;32509;47.750;-3.396;2024-03-23T05:35:58;34.80;;;32.58;;
46757;SDS011;32509;47.750;-3.396;2024-03-23T05:38:25;37.17;;;34.20;;
46757;SDS011;32509;47.750;-3.396;2024-03-23T05:43:20;32.65;;;30.25;;
46757;SDS011;32509;47.750;-3.396;2024-03-23T05:45:52;35.20;;;32.65;;
46757;SDS011;32509;47.750;-3.396;2024-03-23T05:48:19;33.72;;;31.08;;
46757;SDS011;32509;47.750;-3.396;2024-03-23T05:50:45;37.92;;;34.78;;
46757;SDS011;32509;47.750;-3.396;2024-03-23T05:53:10;37.85;;;34.30;;
46757;SDS011;32509;47.750;-3.396;2024-03-23T05:55:38;37.40;;;34.55;;
46757;SDS011;32509;47.750;-3.396;2024-03-23T05:58:03;38.90;;;36.28;;
46757;SDS011;32509;47.750;-3.396;2024-03-23T06:00:30;36.67;;;34.15;;
46757;SDS011;32509;47.750;-3.396;2024-03-23T06:02:56;36.22;;;33.42;;
46757;SDS011;32509;47.750;-3.396;2024-03-23T06:05:22;40.03;;;36.50;;
46757;SDS011;32509;47.750;-3.396;2024-03-23T06:07:48;34.47;;;31.73;;
46757;SDS011;32509;47.750;-3.396;2024-03-23T06:10:15;37.55;;;34.47;;
46757;SDS011;32509;47.750;-3.396;2024-03-23T06:12:41;35.88;;;33.25;;
46757;SDS011;32509;47.750;-3.396;2024-03-23T06:15:07;36.78;;;33.75;;
46757;SDS011;32509;47.750;-3.396;2024-03-23T06:17:38;37.45;;;34.50;;
46757;SDS011;32509;47.750;-3.396;2024-03-23T06:20:05;35.67;;;33.17;;
46757;SDS011;32509;47.750;-3.396;2024-03-23T06:22:31;38.17;;;34.33;;
46757;SDS011;32509;47.750;-3.396;2024-03-23T06:24:58;39.05;;;35.92;;
46757;SDS011;32509;47.750;-3.396;2024-03-23T06:27:24;34.42;;;31.52;;
46757;SDS011;32509;47.750;-3.396;2024-03-23T06:29:50;32.70;;;29.92;;
46757;SDS011;32509;47.750;-3.396;2024-03-23T06:32:16;34.45;;;31.98;;
46757;SDS011;32509;47.750;-3.396;2024-03-23T06:34:43;35.90;;;33.28;;
46757;SDS011;32509;47.750;-3.396;2024-03-23T06:37:09;34.53;;;32.03;;
46757;SDS011;32509;47.750;-3.396;2024-03-23T06:39:38;34.30;;;31.27;;
46757;SDS011;32509;47.750;-3.396;2024-03-23T06:42:04;36.65;;;33.85;;
46757;SDS011;32509;47.750;-3.396;2024-03-23T06:44:30;35.63;;;32.75;;
46757;SDS011;32509;47.750;-3.396;2024-03-23T06:46:56;34.50;;;31.25;;
46757;SDS011;32509;47.750;-3.396;2024-03-23T06:49:22;38.42;;;35.40;;
46757;SDS011;32509;47.750;-3.396;2024-03-23T06:51:48;33.67;;;31.23;;
46757;SDS011;32509;47.750;-3.396;2024-03-23T06:54:14;34.83;;;31.85;;
46757;SDS011;32509;47.750;-3.396;2024-03-23T06:56:44;36.10;;;33.35;;
46757;SDS011;32509;47.750;-3.396;2024-03-23T06:59:10;33.03;;;30.67;;
46757;SDS011;32509;47.750;-3.396;2024-03-23T07:01:37;34.10;;;31.80;;
46757;SDS011;32509;47.750;-3.396;2024-03-23T07:04:02;36.22;;;32.90;;
46757;SDS011;32509;47.750;-3.396;2024-03-23T07:06:29;34.33;;;31.42;;
46757;SDS011;32509;47.750;-3.396;2024-03-23T07:08:58;33.15;;;30.27;;
46757;SDS011;32509;47.750;-3.396;2024-03-23T07:11:24;35.20;;;32.60;;
46757;SDS011;32509;47.750;-3.396;2024-03-23T07:13:50;35.70;;;32.50;;
46757;SDS011;32509;47.750;-3.396;2024-03-23T07:16:17;32.60;;;30.02;;
46757;SDS011;32509;47.750;-3.396;2024-03-23T07:18:43;31.83;;;29.45;;
46757;SDS011;32509;47.750;-3.396;2024-03-23T07:21:09;33.08;;;29.90;;
46757;SDS011;32509;47.750;-3.396;2024-03-23T07:23:35;32.05;;;29.42;;
46757;SDS011;32509;47.750;-3.396;2024-03-23T07:26:02;33.83;;;30.48;;
46757;SDS011;32509;47.750;-3.396;2024-03-23T07:28:29;32.53;;;30.17;;
46757;SDS011;32509;47.750;-3.396;2024-03-23T07:33:28;35.30;;;32.05;;
46757;SDS011;32509;47.750;-3.396;2024-03-23T07:35:54;32.40;;;29.83;;
46757;SDS011;32509;47.750;-3.396;2024-03-23T07:38:20;32.65;;;30.25;;
46757;SDS011;32509;47.750;-3.396;2024-03-23T07:40:45;33.42;;;30.63;;
46757;SDS011;32509;47.750;-3.396;2024-03-23T07:43:11;32.58;;;30.00;;
46757;SDS011;32509;47.750;-3.396;2024-03-23T07:45:37;31.95;;;28.95;;
46757;SDS011;32509;47.750;-3.396;2024-03-23T07:48:03;33.65;;;31.23;;
46757;SDS011;32509;47.750;-3.396;2024-03-23T07:50:29;32.30;;;29.50;;
46757;SDS011;32509;47.750;-3.396;2024-03-23T07:52:55;31.77;;;28.75;;
46757;SDS011;32509;47.750;-3.396;2024-03-23T07:55:21;34.10;;;30.33;;
46757;SDS011;32509;47.750;-3.396;2024-03-23T07:57:47;34.17;;;31.40;;
46757;SDS011;32509;47.750;-3.396;2024-03-23T08:00:13;34.10;;;30.80;;
46757;SDS011;32509;47.750;-3.396;2024-03-23T08:02:39;33.65;;;31.05;;
46757;SDS011;32509;47.750;-3.396;2024-03-23T08:05:05;35.40;;;31.83;;
46757;SDS011;32509;47.750;-3.396;2024-03-23T08:07:31;38.10;;;34.55;;
46757;SDS011;32509;47.750;-3.396;2024-03-23T08:09:56;34.92;;;31.98;;
46757;SDS011;32509;47.750;-3.396;2024-03-23T08:12:24;35.10;;;32.17;;
46757;SDS011;32509;47.750;-3.396;2024-03-23T08:14:50;36.72;;;33.20;;
46757;SDS011;32509;47.750;-3.396;2024-03-23T08:17:15;37.28;;;34.03;;
46757;SDS011;32509;47.750;-3.396;2024-03-23T08:19:41;36.92;;;33.70;;
46757;SDS011;32509;47.750;-3.396;2024-03-23T08:22:07;35.58;;;32.88;;
46757;SDS011;32509;47.750;-3.396;2024-03-23T08:24:34;39.17;;;36.10;;
46757;SDS011;32509;47.750;-3.396;2024-03-23T08:26:59;39.80;;;36.58;;
46757;SDS011;32509;47.750;-3.396;2024-03-23T08:29:25;41.65;;;38.35;;
46757;SDS011;32509;47.750;-3.396;2024-03-23T08:31:51;35.10;;;32.15;;
46757;SDS011;32509;47.750;-3.396;2024-03-23T08:34:17;36.17;;;32.72;;
46757;SDS011;32509;47.750;-3.396;2024-03-23T08:36:43;39.88;;;36.70;;
46757;SDS011;32509;47.750;-3.396;2024-03-23T08:39:09;43.08;;;39.58;;
46757;SDS011;32509;47.750;-3.396;2024-03-23T08:41:34;43.80;;;40.67;;
46757;SDS011;32509;47.750;-3.396;2024-03-23T08:44:00;42.15;;;38.90;;
46757;SDS011;32509;47.750;-3.396;2024-03-23T08:46:26;39.90;;;37.13;;
46757;SDS011;32509;47.750;-3.396;2024-03-23T08:48:52;41.47;;;37.80;;
46757;SDS011;32509;47.750;-3.396;2024-03-23T08:51:18;43.40;;;40.15;;
46757;SDS011;32509;47.750;-3.396;2024-03-23T08:53:45;37.08;;;34.65;;
46757;SDS011;32509;47.750;-3.396;2024-03-23T08:56:11;42.42;;;39.38;;
46757;SDS011;32509;47.750;-3.396;2024-03-23T08:58:37;41.55;;;38.58;;
46757;SDS011;32509;47.750;-3.396;2024-03-23T09:01:04;37.47;;;34.72;;
46757;SDS011;32509;47.750;-3.396;2024-03-23T09:03:34;42.33;;;39.28;;
46757;SDS011;32509;47.750;-3.396;2024-03-23T09:06:00;47.03;;;43.60;;
46757;SDS011;32509;47.750;-3.396;2024-03-23T09:08:27;37.15;;;34.47;;
46757;SDS011;32509;47.750;-3.396;2024-03-23T09:10:53;39.47;;;36.60;;
46757;SDS011;32509;47.750;-3.396;2024-03-23T09:13:19;46.20;;;41.33;;
46757;SDS011;32509;47.750;-3.396;2024-03-23T09:15:49;42.20;;;39.05;;
46757;SDS011;32509;47.750;-3.396;2024-03-23T09:18:16;40.83;;;38.17;;
46757;SDS011;32509;47.750;-3.396;2024-03-23T09:20:42;41.72;;;38.67;;
46757;SDS011;32509;47.750;-3.396;2024-03-23T09:23:08;44.75;;;41.53;;
46757;SDS011;32509;47.750;-3.396;2024-03-23T09:25:37;42.15;;;39.15;;
46757;SDS011;32509;47.750;-3.396;2024-03-23T09:28:04;40.55;;;37.53;;
46757;SDS011;32509;47.750;-3.396;2024-03-23T09:30:32;42.53;;;39.50;;
46757;SDS011;32509;47.750;-3.396;2024-03-23T09:32:58;45.72;;;42.20;;
46757;SDS011;32509;47.750;-3.396;2024-03-23T09:35:24;43.10;;;40.17;;
46757;SDS011;32509;47.750;-3.396;2024-03-23T09:37:50;39.50;;;36.85;;
46757;SDS011;32509;47.750;-3.396;2024-03-23T09:40:16;43.13;;;40.13;;
46757;SDS011;32509;47.750;-3.396;2024-03-23T09:42:41;39.45;;;36.33;;
46757;SDS011;32509;47.750;-3.396;2024-03-23T09:45:17;43.03;;;40.28;;
46757;SDS011;32509;47.750;-3.396;2024-03-23T09:47:46;41.72;;;38.45;;
46757;SDS011;32509;47.750;-3.396;2024-03-23T09:50:12;42.00;;;39.55;;
46757;SDS011;32509;47.750;-3.396;2024-03-23T09:52:39;42.78;;;40.03;;
46757;SDS011;32509;47.750;-3.396;2024-03-23T09:55:06;44.78;;;41.90;;
46757;SDS011;32509;47.750;-3.396;2024-03-23T09:57:33;43.63;;;40.83;;
46757;SDS011;32509;47.750;-3.396;2024-03-23T09:59:59;42.85;;;39.83;;
46757;SDS011;32509;47.750;-3.396;2024-03-23T10:02:25;44.45;;;41.78;;
46757;SDS011;32509;47.750;-3.396;2024-03-23T10:04:51;40.75;;;37.53;;
46757;SDS011;32509;47.750;-3.396;2024-03-23T10:07:20;40.75;;;37.97;;
46757;SDS011;32509;47.750;-3.396;2024-03-23T10:09:47;37.50;;;34.80;;
46757;SDS011;32509;47.750;-3.396;2024-03-23T10:12:14;41.88;;;38.90;;
46757;SDS011;32509;47.750;-3.396;2024-03-23T10:14:42;41.85;;;38.92;;
46757;SDS011;32509;47.750;-3.396;2024-03-23T10:17:11;43.38;;;40.42;;
46757;SDS011;32509;47.750;-3.396;2024-03-23T10:19:42;38.08;;;35.65;;
46757;SDS011;32509;47.750;-3.396;2024-03-23T10:22:17;44.70;;;41.80;;
46757;SDS011;32509;47.750;-3.396;2024-03-23T10:24:44;41.42;;;38.58;;
46757;SDS011;32509;47.750;-3.396;2024-03-23T10:27:14;40.72;;;37.78;;
46757;SDS011;32509;47.750;-3.396;2024-03-23T10:29:42;45.03;;;41.60;;
46757;SDS011;32509;47.750;-3.396;2024-03-23T10:32:12;42.45;;;39.65;;
46757;SDS011;32509;47.750;-3.396;2024-03-23T10:34:43;43.42;;;40.60;;
46757;SDS011;32509;47.750;-3.396;2024-03-23T10:37:09;38.97;;;36.42;;
46757;SDS011;32509;47.750;-3.396;2024-03-23T10:39:36;39.35;;;36.80;;
46757;SDS011;32509;47.750;-3.396;2024-03-23T10:42:06;43.90;;;41.00;;
46757;SDS011;32509;47.750;-3.396;2024-03-23T10:44:34;40.67;;;38.10;;
46757;SDS011;32509;47.750;-3.396;2024-03-23T10:47:03;42.55;;;39.65;;
46757;SDS011;32509;47.750;-3.396;2024-03-23T10:49:30;41.75;;;39.15;;
46757;SDS011;32509;47.750;-3.396;2024-03-23T10:52:01;41.70;;;39.13;;
46757;SDS011;32509;47.750;-3.396;2024-03-23T10:54:31;38.65;;;36.10;;
46757;SDS011;32509;47.750;-3.396;2024-03-23T10:57:05;39.97;;;37.30;;
46757;SDS011;32509;47.750;-3.396;2024-03-23T10:59:34;36.97;;;34.45;;
46757;SDS011;32509;47.750;-3.396;2024-03-23T11:02:03;37.40;;;34.78;;
46757;SDS011;32509;47.750;-3.396;2024-03-23T11:04:29;37.42;;;34.72;;
46757;SDS011;32509;47.750;-3.396;2024-03-23T11:07:02;40.28;;;37.83;;
46757;SDS011;32509;47.750;-3.396;2024-03-23T11:15:05;40.42;;;37.80;;
46757;SDS011;32509;47.750;-3.396;2024-03-23T11:17:43;38.17;;;35.60;;
46757;SDS011;32509;47.750;-3.396;2024-03-23T11:20:33;40.35;;;37.30;;
46757;SDS011;32509;47.750;-3.396;2024-03-23T11:23:00;38.53;;;36.08;;
46757;SDS011;32509;47.750;-3.396;2024-03-23T11:25:26;39.72;;;37.20;;
46757;SDS011;32509;47.750;-3.396;2024-03-23T11:27:53;38.85;;;36.20;;
46757;SDS011;32509;47.750;-3.396;2024-03-23T11:30:27;39.65;;;36.60;;
46757;SDS011;32509;47.750;-3.396;2024-03-23T11:32:55;42.42;;;39.75;;
46757;SDS011;32509;47.750;-3.396;2024-03-23T11:35:31;40.55;;;37.80;;
46757;SDS011;32509;47.750;-3.396;2024-03-23T11:38:06;39.70;;;37.17;;
46757;SDS011;32509;47.750;-3.396;2024-03-23T11:40:34;37.47;;;35.10;;
46757;SDS011;32509;47.750;-3.396;2024-03-23T11:43:05;36.55;;;33.78;;
46757;SDS011;32509;47.750;-3.396;2024-03-23T11:45:35;37.92;;;35.40;;
46757;SDS011;32509;47.750;-3.396;2024-03-23T11:48:10;37.50;;;35.00;;
46757;SDS011;32509;47.750;-3.396;2024-03-23T11:50:41;38.40;;;35.90;;
46757;SDS011;32509;47.750;-3.396;2024-03-23T11:58:11;42.80;;;39.75;;
46757;SDS011;32509;47.750;-3.396;2024-03-23T12:00:37;39.40;;;37.03;;
46757;SDS011;32509;47.750;-3.396;2024-03-23T12:03:03;40.15;;;37.55;;
46757;SDS011;32509;47.750;-3.396;2024-03-23T12:05:30;44.10;;;40.75;;
46757;SDS011;32509;47.750;-3.396;2024-03-23T12:08:18;40.17;;;37.42;;
46757;SDS011;32509;47.750;-3.396;2024-03-23T12:10:46;45.50;;;42.58;;
46757;SDS011;32509;47.750;-3.396;2024-03-23T12:13:20;44.92;;;41.97;;
46757;SDS011;32509;47.750;-3.396;2024-03-23T12:15:48;41.78;;;39.05;;
46757;SDS011;32509;47.750;-3.396;2024-03-23T12:18:15;42.65;;;39.92;;
46757;SDS011;32509;47.750;-3.396;2024-03-23T12:20:41;46.38;;;43.80;;
46757;SDS011;32509;47.750;-3.396;2024-03-23T12:23:08;43.10;;;40.08;;
46757;SDS011;32509;47.750;-3.396;2024-03-23T12:25:38;40.83;;;38.35;;
46757;SDS011;32509;47.750;-3.396;2024-03-23T12:28:05;46.35;;;43.45;;
46757;SDS011;32509;47.750;-3.396;2024-03-23T12:30:32;41.70;;;39.22;;
46757;SDS011;32509;47.750;-3.396;2024-03-23T12:33:03;42.65;;;39.85;;
46757;SDS011;32509;47.750;-3.396;2024-03-23T12:35:29;41.63;;;39.13;;
46757;SDS011;32509;47.750;-3.396;2024-03-23T12:37:55;46.10;;;43.50;;
46757;SDS011;32509;47.750;-3.396;2024-03-23T12:40:21;46.53;;;43.70;;
46757;SDS011;32509;47.750;-3.396;2024-03-23T12:42:47;43.55;;;40.80;;
46757;SDS011;32509;47.750;-3.396;2024-03-23T12:45:13;47.83;;;44.03;;
46757;SDS011;32509;47.750;-3.396;2024-03-23T12:47:38;44.70;;;41.58;;
46757;SDS011;32509;47.750;-3.396;2024-03-23T12:50:04;44.63;;;41.80;;
46757;SDS011;32509;47.750;-3.396;2024-03-23T12:52:31;42.95;;;40.22;;
46757;SDS011;32509;47.750;-3.396;2024-03-23T12:54:57;44.10;;;40.92;;
46757;SDS011;32509;47.750;-3.396;2024-03-23T12:57:23;46.83;;;43.50;;
46757;SDS011;32509;47.750;-3.396;2024-03-23T12:59:52;47.10;;;43.63;;
46757;SDS011;32509;47.750;-3.396;2024-03-23T13:02:19;40.70;;;37.70;;
46757;SDS011;32509;47.750;-3.396;2024-03-23T13:04:45;44.33;;;40.22;;
46757;SDS011;32509;47.750;-3.396;2024-03-23T13:07:15;42.13;;;39.10;;
46757;SDS011;32509;47.750;-3.396;2024-03-23T13:09:41;42.53;;;39.58;;
46757;SDS011;32509;47.750;-3.396;2024-03-23T13:12:07;41.67;;;38.67;;
46757;SDS011;32509;47.750;-3.396;2024-03-23T13:14:33;40.88;;;37.72;;
46757;SDS011;32509;47.750;-3.396;2024-03-23T13:16:59;43.38;;;40.08;;
46757;SDS011;32509;47.750;-3.396;2024-03-23T13:19:25;40.40;;;37.75;;
46757;SDS011;32509;47.750;-3.396;2024-03-23T13:21:53;40.20;;;37.50;;
46757;SDS011;32509;47.750;-3.396;2024-03-23T13:24:23;41.00;;;38.40;;
46757;SDS011;32509;47.750;-3.396;2024-03-23T13:26:50;40.67;;;38.13;;
46757;SDS011;32509;47.750;-3.396;2024-03-23T13:29:17;38.13;;;35.53;;
46757;SDS011;32509;47.750;-3.396;2024-03-23T13:31:43;40.35;;;37.60;;
46757;SDS011;32509;47.750;-3.396;2024-03-23T13:34:08;41.75;;;39.15;;
46757;SDS011;32509;47.750;-3.396;2024-03-23T13:36:34;41.17;;;38.60;;
46757;SDS011;32509;47.750;-3.396;2024-03-23T13:39:01;38.08;;;35.75;;
46757;SDS011;32509;47.750;-3.396;2024-03-23T13:41:39;40.28;;;37.55;;
46757;SDS011;32509;47.750;-3.396;2024-03-23T13:44:06;40.92;;;38.30;;
46757;SDS011;32509;47.750;-3.396;2024-03-23T13:46:33;41.13;;;38.53;;
46757;SDS011;32509;47.750;-3.396;2024-03-23T13:48:59;41.53;;;38.90;;
46757;SDS011;32509;47.750;-3.396;2024-03-23T13:51:25;37.17;;;34.85;;
46757;SDS011;32509;47.750;-3.396;2024-03-23T13:53:55;39.22;;;36.35;;
46757;SDS011;32509;47.750;-3.396;2024-03-23T13:56:30;39.15;;;36.65;;
46757;SDS011;32509;47.750;-3.396;2024-03-23T13:58:55;41.58;;;38.90;;
46757;SDS011;32509;47.750;-3.396;2024-03-23T14:01:22;39.95;;;37.45;;
46757;SDS011;32509;47.750;-3.396;2024-03-23T14:03:48;42.03;;;39.00;;
46757;SDS011;32509;47.750;-3.396;2024-03-23T14:06:14;41.50;;;38.28;;
46757;SDS011;32509;47.750;-3.396;2024-03-23T14:08:40;41.70;;;38.20;;
46757;SDS011;32509;47.750;-3.396;2024-03-23T14:11:06;39.65;;;36.80;;
46757;SDS011;32509;47.750;-3.396;2024-03-23T14:13:36;42.33;;;39.33;;
46757;SDS011;32509;47.750;-3.396;2024-03-23T14:16:02;40.00;;;37.33;;
46757;SDS011;32509;47.750;-3.396;2024-03-23T14:18:28;38.13;;;35.22;;
46757;SDS011;32509;47.750;-3.396;2024-03-23T14:20:58;38.30;;;35.47;;
46757;SDS011;32509;47.750;-3.396;2024-03-23T14:23:26;38.83;;;35.95;;
46757;SDS011;32509;47.750;-3.396;2024-03-23T14:25:54;37.78;;;34.95;;
46757;SDS011;32509;47.750;-3.396;2024-03-23T14:28:21;36.50;;;34.30;;
46757;SDS011;32509;47.750;-3.396;2024-03-23T14:30:48;37.92;;;35.22;;
46757;SDS011;32509;47.750;-3.396;2024-03-23T14:33:14;35.00;;;32.78;;
46757;SDS011;32509;47.750;-3.396;2024-03-23T14:35:41;38.47;;;36.03;;
46757;SDS011;32509;47.750;-3.396;2024-03-23T14:38:06;39.20;;;36.65;;
46757;SDS011;32509;47.750;-3.396;2024-03-23T14:40:32;37.70;;;34.90;;
46757;SDS011;32509;47.750;-3.396;2024-03-23T14:42:58;40.10;;;37.80;;
46757;SDS011;32509;47.750;-3.396;2024-03-23T14:45:24;39.55;;;36.80;;
46757;SDS011;32509;47.750;-3.396;2024-03-23T14:47:51;38.03;;;35.75;;
46757;SDS011;32509;47.750;-3.396;2024-03-23T14:50:17;34.40;;;32.10;;
46757;SDS011;32509;47.750;-3.396;2024-03-23T14:52:44;35.25;;;33.10;;
46757;SDS011;32509;47.750;-3.396;2024-03-23T14:55:10;37.05;;;34.65;;
46757;SDS011;32509;47.750;-3.396;2024-03-23T14:57:37;38.45;;;35.17;;
46757;SDS011;32509;47.750;-3.396;2024-03-23T15:00:05;38.55;;;35.92;;
46757;SDS011;32509;47.750;-3.396;2024-03-23T15:02:32;36.25;;;33.70;;
46757;SDS011;32509;47.750;-3.396;2024-03-23T15:04:59;38.90;;;36.05;;
46757;SDS011;32509;47.750;-3.396;2024-03-23T15:07:25;41.75;;;38.90;;
46757;SDS011;32509;47.750;-3.396;2024-03-23T15:09:52;39.15;;;36.53;;
46757;SDS011;32509;47.750;-3.396;2024-03-23T15:12:18;38.25;;;35.58;;
46757;SDS011;32509;47.750;-3.396;2024-03-23T15:14:44;34.53;;;32.35;;
46757;SDS011;32509;47.750;-3.396;2024-03-23T15:17:11;34.75;;;32.75;;